createdAt,value
2023-02-08T00:00:17.529Z,73.18
2023-02-08T00:02:45.087Z,74.25
2023-02-08T00:05:13.954Z,73.54
2023-02-08T00:07:41.565Z,73.94
2023-02-08T00:10:10.441Z,73.54
2023-02-08T00:12:38.522Z,72.62
2023-02-08T00:15:06.450Z,73.57
2023-02-08T00:17:34.027Z,73.27
2023-02-08T00:20:01.471Z,73.71
2023-02-08T00:22:30.242Z,73.62
2023-02-08T00:24:57.736Z,73.22
2023-02-08T00:27:25.220Z,73.39
2023-02-08T00:29:52.643Z,73.01
2023-02-08T00:32:20.057Z,73.70
2023-02-08T00:34:47.702Z,73.78
2023-02-08T00:37:15.202Z,74.08
2023-02-08T00:39:44.126Z,72.81
2023-02-08T00:42:11.853Z,73.05
2023-02-08T00:44:39.552Z,74.29
2023-02-08T00:47:07.058Z,73.41
2023-02-08T00:49:34.492Z,73.52
2023-02-08T00:52:01.934Z,73.74
2023-02-08T00:54:29.386Z,73.16
2023-02-08T00:56:58.179Z,73.22
2023-02-08T00:59:25.855Z,74.01
2023-02-08T01:01:53.340Z,73.53
2023-02-08T01:04:20.820Z,72.53
2023-02-08T01:06:48.268Z,73.64
2023-02-08T01:09:15.767Z,73.70
2023-02-08T01:11:43.219Z,73.82
2023-02-08T01:14:12.019Z,73.68
2023-02-08T01:16:39.880Z,73.09
2023-02-08T01:19:07.546Z,74.46
2023-02-08T01:21:36.582Z,73.19
2023-02-08T01:24:05.222Z,75.17
2023-02-08T01:26:33.830Z,73.77
2023-02-08T01:29:01.846Z,74.01
2023-02-08T01:31:33.024Z,75.03
2023-02-08T01:34:01.872Z,74.07
2023-02-08T01:36:30.322Z,74.07
2023-02-08T01:38:58.256Z,73.57
2023-02-08T01:41:27.678Z,73.46
2023-02-08T01:44:13.266Z,72.79
2023-02-08T01:46:43.434Z,73.78
2023-02-08T01:49:17.309Z,73.58
2023-02-08T01:51:48.930Z,73.47
2023-02-08T01:54:18.938Z,73.59
2023-02-08T01:56:47.989Z,72.96
2023-02-08T01:59:19.647Z,74.27
2023-02-08T02:01:52.152Z,73.29
2023-02-08T02:04:19.807Z,73.18
2023-02-08T02:06:52.918Z,73.42
2023-02-08T02:09:25.467Z,73.69
2023-02-08T02:11:55.143Z,73.95
2023-02-08T02:14:23.399Z,72.97
2023-02-08T02:16:52.407Z,72.61
2023-02-08T02:19:31.404Z,72.28
2023-02-08T02:22:08.440Z,73.66
2023-02-08T02:24:53.918Z,72.62
2023-02-08T02:27:41.737Z,73.12
2023-02-08T02:30:36.855Z,73.67
2023-02-08T02:33:42.523Z,73.81
2023-02-08T02:36:19.923Z,72.66
2023-02-08T02:39:03.620Z,72.85
2023-02-08T02:41:59.453Z,72.86
2023-02-08T02:44:34.172Z,74.17
2023-02-08T02:47:07.757Z,73.50
2023-02-08T02:49:40.137Z,73.39
2023-02-08T02:52:12.851Z,73.03
2023-02-08T02:54:46.072Z,73.32
2023-02-08T02:57:17.218Z,72.71
2023-02-08T02:59:46.698Z,72.79
2023-02-08T03:02:14.448Z,73.75
2023-02-08T03:04:50.834Z,74.06
2023-02-08T03:07:39.349Z,73.53
2023-02-08T03:10:19.036Z,74.98
2023-02-08T03:13:00.052Z,73.33
2023-02-08T03:15:36.891Z,73.48
2023-02-08T03:18:12.972Z,72.27
2023-02-08T03:20:43.938Z,72.85
2023-02-08T03:23:19.336Z,73.09
2023-02-08T03:25:52.859Z,73.03
2023-02-08T03:28:27.160Z,73.45
2023-02-08T03:31:02.437Z,73.97
2023-02-08T03:33:35.798Z,73.51
2023-02-08T03:36:07.236Z,73.20
2023-02-08T03:38:38.756Z,73.17
2023-02-08T03:41:11.132Z,73.39
2023-02-08T03:43:43.554Z,73.54
2023-02-08T03:46:15.030Z,73.69
2023-02-08T03:48:48.726Z,73.36
2023-02-08T03:51:17.790Z,72.47
2023-02-08T03:53:48.787Z,72.03
2023-02-08T03:56:21.473Z,73.02
2023-02-08T03:58:54.986Z,73.15
2023-02-08T04:01:28.314Z,73.25
2023-02-08T04:03:57.785Z,73.34
2023-02-08T04:06:25.081Z,73.76
2023-02-08T04:08:53.871Z,73.47
2023-02-08T04:11:21.308Z,73.02
2023-02-08T04:13:48.748Z,72.98
2023-02-08T04:16:16.242Z,73.13
2023-02-08T04:18:43.785Z,72.55
2023-02-08T04:21:11.501Z,73.26
2023-02-08T04:23:38.959Z,72.96
2023-02-08T04:26:08.731Z,73.04
2023-02-08T04:28:36.231Z,72.79
2023-02-08T04:31:03.897Z,72.80
2023-02-08T04:33:31.499Z,72.83
2023-02-08T04:35:58.971Z,73.06
2023-02-08T04:38:26.461Z,72.59
2023-02-08T04:40:53.879Z,73.10
2023-02-08T04:43:22.692Z,73.24
2023-02-08T04:45:51.004Z,72.94
2023-02-08T04:48:18.788Z,72.75
2023-02-08T04:50:46.527Z,73.21
2023-02-08T04:53:14.078Z,73.33
2023-02-08T04:55:41.603Z,73.09
2023-02-08T04:58:09.043Z,73.30
2023-02-08T05:00:37.932Z,73.75
2023-02-08T05:03:05.624Z,73.72
2023-02-08T05:05:33.603Z,73.46
2023-02-08T05:08:01.105Z,73.68
2023-02-08T05:10:28.712Z,73.58
2023-02-08T05:12:56.234Z,73.28
2023-02-08T05:15:23.802Z,73.26
2023-02-08T05:17:52.614Z,73.48
2023-02-08T05:20:21.482Z,73.76
2023-02-08T05:22:48.958Z,73.19
2023-02-08T05:25:17.917Z,73.26
2023-02-08T05:27:45.377Z,73.76
2023-02-08T05:30:13.301Z,72.91
2023-02-08T05:32:40.790Z,72.77
2023-02-08T05:35:10.446Z,73.04
2023-02-08T05:37:37.895Z,72.59
2023-02-08T05:40:06.001Z,72.79
2023-02-08T05:42:33.518Z,73.31
2023-02-08T05:45:00.982Z,72.94
2023-02-08T05:47:28.421Z,72.37
2023-02-08T05:49:55.859Z,73.29
2023-02-08T05:52:24.626Z,73.41
2023-02-08T05:54:52.076Z,74.26
2023-02-08T05:57:19.522Z,73.83
2023-02-08T05:59:49.286Z,72.73
2023-02-08T06:02:16.763Z,72.56
2023-02-08T06:04:44.249Z,73.07
2023-02-08T06:07:11.737Z,73.27
2023-02-08T06:09:40.486Z,73.29
2023-02-08T06:12:08.091Z,72.53
2023-02-08T06:14:35.542Z,72.16
2023-02-08T06:17:02.964Z,72.09
2023-02-08T06:19:30.390Z,71.92
2023-02-08T06:21:57.860Z,72.28
2023-02-08T06:24:25.690Z,72.50
2023-02-08T06:26:54.448Z,72.69
2023-02-08T06:29:21.895Z,72.42
2023-02-08T06:31:49.466Z,73.25
2023-02-08T06:34:16.956Z,72.19
2023-02-08T06:36:45.659Z,73.38
2023-02-08T06:39:13.222Z,73.01
2023-02-08T06:41:40.659Z,72.63
2023-02-08T06:44:09.469Z,73.00
2023-02-08T06:46:36.959Z,72.50
2023-02-08T06:49:04.597Z,72.41
2023-02-08T06:51:32.076Z,72.54
2023-02-08T06:53:59.501Z,73.07
2023-02-08T06:56:26.940Z,72.72
2023-02-08T06:58:54.357Z,72.46
2023-02-08T07:01:23.192Z,73.16
2023-02-08T07:03:50.639Z,73.58
2023-02-08T07:06:20.509Z,73.71
2023-02-08T07:08:48.897Z,73.59
2023-02-08T07:11:19.746Z,73.04
2023-02-08T07:13:48.558Z,73.33
2023-02-08T07:16:16.234Z,73.37
2023-02-08T07:18:45.156Z,74.22
2023-02-08T07:21:13.003Z,74.04
2023-02-08T07:23:41.363Z,74.06
2023-02-08T07:26:11.871Z,74.33
2023-02-08T07:28:39.822Z,74.81
2023-02-08T07:31:07.924Z,74.42
2023-02-08T07:33:35.575Z,74.51
2023-02-08T07:36:05.276Z,74.18
2023-02-08T07:38:33.694Z,75.11
2023-02-08T07:41:02.607Z,75.49
2023-02-08T07:43:30.154Z,75.89
2023-02-08T07:45:58.004Z,75.92
2023-02-08T07:48:25.583Z,75.97
2023-02-08T07:50:53.007Z,76.07
2023-02-08T07:53:21.807Z,76.74
2023-02-08T07:55:49.225Z,76.71
2023-02-08T07:58:16.656Z,76.91
2023-02-08T08:00:44.118Z,76.70
2023-02-08T08:03:11.564Z,77.37
2023-02-08T08:05:40.929Z,77.41
2023-02-08T08:08:08.419Z,80.46
2023-02-08T08:10:37.381Z,81.86
2023-02-08T08:13:05.136Z,85.00
2023-02-08T08:15:32.835Z,81.74
2023-02-08T08:18:00.320Z,82.88
2023-02-08T08:20:28.256Z,83.95
2023-02-08T08:22:55.689Z,81.53
2023-02-08T08:25:23.134Z,82.83
2023-02-08T08:27:51.932Z,84.27
2023-02-08T08:30:20.749Z,84.42
2023-02-08T08:32:48.324Z,84.99
2023-02-08T08:35:15.785Z,83.92
2023-02-08T08:37:43.211Z,84.41
2023-02-08T08:40:11.491Z,84.15
2023-02-08T08:42:40.162Z,84.18
2023-02-08T08:45:10.426Z,84.05
2023-02-08T08:47:37.909Z,83.39
2023-02-08T08:50:05.800Z,82.96
2023-02-08T08:52:33.380Z,82.96
2023-02-08T08:55:00.890Z,82.39
2023-02-08T08:57:28.396Z,83.74
2023-02-08T08:59:55.848Z,82.61
2023-02-08T09:02:24.708Z,81.11
2023-02-08T09:04:52.190Z,80.85
2023-02-08T09:07:19.688Z,80.54
2023-02-08T09:09:47.900Z,79.15
2023-02-08T09:12:16.045Z,79.65
2023-02-08T09:14:44.700Z,78.60
2023-02-08T09:17:12.303Z,78.70
2023-02-08T09:19:42.416Z,78.82
2023-02-08T09:22:10.040Z,77.09
2023-02-08T09:24:37.551Z,77.18
2023-02-08T09:27:05.236Z,76.70
2023-02-08T09:29:33.603Z,78.05
2023-02-08T09:32:01.364Z,78.20
2023-02-08T09:34:29.131Z,76.08
2023-02-08T09:36:57.926Z,75.30
2023-02-08T09:39:26.558Z,76.64
2023-02-08T09:42:09.091Z,75.82
2023-02-08T09:44:46.727Z,74.84
2023-02-08T09:47:21.580Z,75.00
2023-02-08T09:49:58.600Z,74.23
2023-02-08T09:52:34.265Z,72.39
2023-02-08T09:55:11.556Z,72.40
2023-02-08T09:57:40.187Z,71.68
2023-02-08T10:00:15.243Z,72.55
2023-02-08T10:02:44.931Z,71.88
2023-02-08T10:05:14.261Z,71.11
2023-02-08T10:07:44.286Z,71.90
2023-02-08T10:10:16.713Z,69.48
2023-02-08T10:12:51.865Z,72.34
2023-02-08T10:15:34.297Z,71.28
2023-02-08T10:18:24.224Z,70.96
2023-02-08T10:21:15.644Z,71.07
2023-02-08T10:24:10.386Z,71.61
2023-02-08T10:26:45.365Z,72.82
2023-02-08T10:29:48.527Z,69.62
2023-02-08T10:32:26.830Z,72.70
2023-02-08T10:34:57.627Z,70.81
2023-02-08T10:37:31.484Z,68.82
2023-02-08T10:40:05.937Z,68.24
2023-02-08T10:42:33.910Z,68.68
2023-02-08T10:45:22.485Z,68.34
2023-02-08T10:47:54.185Z,67.78
2023-02-08T10:50:29.841Z,70.79
2023-02-08T10:52:57.909Z,68.79
2023-02-08T10:55:27.110Z,69.52
2023-02-08T10:57:59.528Z,69.23
2023-02-08T11:00:29.823Z,67.23
2023-02-08T11:03:00.619Z,66.80
2023-02-08T11:05:34.657Z,66.22
2023-02-08T11:08:11.554Z,65.85
2023-02-08T11:10:44.297Z,63.23
2023-02-08T11:13:19.381Z,64.34
2023-02-08T11:15:49.624Z,64.34
2023-02-08T11:18:21.951Z,62.98
2023-02-08T11:20:51.939Z,63.65
2023-02-08T11:23:26.510Z,62.89
2023-02-08T11:25:57.031Z,64.05
2023-02-08T11:28:28.024Z,64.58
2023-02-08T11:30:57.966Z,63.52
2023-02-08T11:33:27.271Z,65.05
2023-02-08T11:35:55.770Z,63.16
2023-02-08T11:38:27.499Z,62.15
2023-02-08T11:40:58.698Z,60.62
2023-02-08T11:43:28.471Z,59.85
2023-02-08T11:45:58.222Z,59.11
2023-02-08T11:48:30.590Z,61.13
2023-02-08T11:51:01.099Z,59.11
2023-02-08T11:53:36.353Z,59.88
2023-02-08T11:56:15.380Z,59.59
2023-02-08T11:58:42.842Z,59.64
2023-02-08T12:01:21.093Z,62.02
2023-02-08T12:03:51.381Z,60.36
2023-02-08T12:06:45.659Z,60.57
2023-02-08T12:09:24.650Z,57.35
2023-02-08T12:12:02.617Z,58.87
2023-02-08T12:14:47.206Z,58.06
2023-02-08T12:17:38.146Z,56.79
2023-02-08T12:20:33.345Z,59.17
2023-02-08T12:23:15.101Z,58.26
2023-02-08T12:25:49.573Z,56.63
2023-02-08T12:28:30.833Z,60.49
2023-02-08T12:31:05.680Z,57.78
2023-02-08T12:33:45.971Z,56.51
2023-02-08T12:36:33.258Z,59.20
2023-02-08T12:39:26.313Z,56.33
2023-02-08T12:42:08.707Z,59.31
2023-02-08T12:44:51.783Z,60.68
2023-02-08T12:47:34.787Z,58.10
2023-02-08T12:50:16.828Z,55.77
2023-02-08T12:52:49.241Z,58.49
2023-02-08T12:55:20.986Z,55.52
2023-02-08T12:57:52.888Z,55.74
2023-02-08T13:00:25.806Z,55.66
2023-02-08T13:03:02.016Z,55.40
2023-02-08T13:05:34.587Z,54.22
2023-02-08T13:08:07.971Z,55.27
2023-02-08T13:10:40.468Z,56.54
2023-02-08T13:13:16.795Z,54.08
2023-02-08T13:15:50.240Z,54.89
2023-02-08T13:18:22.695Z,55.93
2023-02-08T13:20:52.955Z,55.46
2023-02-08T13:23:25.617Z,55.95
2023-02-08T13:25:55.911Z,57.52
2023-02-08T13:28:25.725Z,56.82
2023-02-08T13:30:58.602Z,54.17
2023-02-08T13:33:33.555Z,56.18
2023-02-08T13:36:01.215Z,54.54
2023-02-08T13:38:31.524Z,54.76
2023-02-08T13:41:08.210Z,57.55
2023-02-08T13:43:42.887Z,54.55
2023-02-08T13:46:13.234Z,53.98
2023-02-08T13:48:46.114Z,53.93
2023-02-08T13:51:58.826Z,53.51
2023-02-08T13:54:26.747Z,53.72
2023-02-08T13:56:54.625Z,53.29
2023-02-08T13:59:35.288Z,55.96
2023-02-08T14:02:26.766Z,55.26
2023-02-08T14:05:00.071Z,56.40
2023-02-08T14:07:41.802Z,54.22
2023-02-08T14:10:21.824Z,57.52
2023-02-08T14:12:57.368Z,56.98
2023-02-08T14:15:30.487Z,54.79
2023-02-08T14:18:01.500Z,55.99
2023-02-08T14:20:33.482Z,53.73
2023-02-08T14:23:03.742Z,53.74
2023-02-08T14:25:42.677Z,53.84
2023-02-08T14:28:26.497Z,55.67
2023-02-08T14:30:56.698Z,54.48
2023-02-08T14:33:28.664Z,54.02
2023-02-08T14:35:59.279Z,55.84
2023-02-08T14:38:55.485Z,53.62
2023-02-08T14:41:47.129Z,52.64
2023-02-08T14:44:54.100Z,54.99
2023-02-08T14:47:54.887Z,55.57
2023-02-08T14:50:27.727Z,55.43
2023-02-08T14:53:02.164Z,56.88
2023-02-08T14:55:33.799Z,54.77
2023-02-08T14:58:02.665Z,56.96
2023-02-08T15:00:34.280Z,58.80
2023-02-08T15:03:02.635Z,57.22
2023-02-08T15:05:37.933Z,57.26
2023-02-08T15:08:05.710Z,58.03
2023-02-08T15:10:35.010Z,56.83
2023-02-08T15:13:08.776Z,59.45
2023-02-08T15:15:41.379Z,56.15
2023-02-08T15:18:19.530Z,58.37
2023-02-08T15:20:59.351Z,58.09
2023-02-08T15:23:26.779Z,59.40
2023-02-08T15:26:01.603Z,58.36
2023-02-08T15:28:31.508Z,60.49
2023-02-08T15:31:01.589Z,58.53
2023-02-08T15:33:30.417Z,60.54
2023-02-08T15:36:02.190Z,59.00
2023-02-08T15:38:31.306Z,60.25
2023-02-08T15:41:05.379Z,59.30
2023-02-08T15:43:33.698Z,61.81
2023-02-08T15:46:04.271Z,61.78
2023-02-08T15:48:34.117Z,61.93
2023-02-08T15:51:03.462Z,63.88
2023-02-08T15:53:32.168Z,60.39
2023-02-08T15:56:03.877Z,62.96
2023-02-08T15:58:36.530Z,61.63
2023-02-08T16:01:06.361Z,62.67
2023-02-08T16:03:36.608Z,61.67
2023-02-08T16:06:07.796Z,63.84
2023-02-08T16:08:37.370Z,62.51
2023-02-08T16:11:15.342Z,62.45
2023-02-08T16:13:49.053Z,62.87
2023-02-08T16:16:19.539Z,63.58
2023-02-08T16:18:50.055Z,64.26
2023-02-08T16:21:28.488Z,64.89
2023-02-08T16:23:58.402Z,64.10
2023-02-08T16:26:28.920Z,65.87
2023-02-08T16:28:59.390Z,65.37
2023-02-08T16:31:30.118Z,65.90
2023-02-08T16:34:00.687Z,66.10
2023-02-08T16:36:34.694Z,66.11
2023-02-08T16:39:22.650Z,66.30
2023-02-08T16:42:15.455Z,67.55
2023-02-08T16:45:12.786Z,66.64
2023-02-08T16:47:42.311Z,67.65
2023-02-08T16:50:12.352Z,67.10
2023-02-08T16:52:41.416Z,67.20
2023-02-08T16:55:16.186Z,67.63
2023-02-08T16:57:45.942Z,68.46
2023-02-08T17:00:19.474Z,67.17
2023-02-08T17:02:47.046Z,68.57
2023-02-08T17:05:14.874Z,67.76
2023-02-08T17:07:43.686Z,68.34
2023-02-08T17:10:21.641Z,68.61
2023-02-08T17:12:49.126Z,67.96
2023-02-08T17:15:17.108Z,68.61
2023-02-08T17:17:44.585Z,68.27
2023-02-08T17:20:23.000Z,69.62
2023-02-08T17:22:53.052Z,69.58
2023-02-08T17:25:21.275Z,69.55
2023-02-08T17:27:50.821Z,69.96
2023-02-08T17:30:24.815Z,69.56
2023-02-08T17:32:53.423Z,69.48
2023-02-08T17:35:21.053Z,70.29
2023-02-08T17:37:52.986Z,70.07
2023-02-08T17:40:24.836Z,69.51
2023-02-08T17:42:53.019Z,70.01
2023-02-08T17:45:20.816Z,70.49
2023-02-08T17:47:48.466Z,71.65
2023-02-08T17:50:18.100Z,70.31
2023-02-08T17:52:46.039Z,71.18
2023-02-08T17:55:15.913Z,71.15
2023-02-08T17:57:45.688Z,70.92
2023-02-08T18:00:15.562Z,71.74
2023-02-08T18:02:44.504Z,71.22
2023-02-08T18:05:12.011Z,71.83
2023-02-08T18:07:39.741Z,70.96
2023-02-08T18:10:08.183Z,71.12
2023-02-08T18:12:36.088Z,72.42
2023-02-08T18:15:06.616Z,70.88
2023-02-08T18:17:34.657Z,71.76
2023-02-08T18:20:02.492Z,72.25
2023-02-08T18:22:30.172Z,72.88
2023-02-08T18:24:57.639Z,71.87
2023-02-08T18:27:27.042Z,72.29
2023-02-08T18:29:55.062Z,72.51
2023-02-08T18:32:24.012Z,72.37
2023-02-08T18:34:51.457Z,72.35
2023-02-08T18:37:18.943Z,72.23
2023-02-08T18:39:46.452Z,72.71
2023-02-08T18:42:13.896Z,74.16
2023-02-08T18:44:41.360Z,72.01
2023-02-08T18:47:09.636Z,72.43
2023-02-08T18:49:40.607Z,73.20
2023-02-08T18:52:09.792Z,73.68
2023-02-08T18:54:38.798Z,73.87
2023-02-08T18:57:09.401Z,71.50
2023-02-08T18:59:37.312Z,72.95
2023-02-08T19:02:06.823Z,73.60
2023-02-08T19:04:39.007Z,74.05
2023-02-08T19:07:06.995Z,73.28
2023-02-08T19:09:35.556Z,72.95
2023-02-08T19:12:03.044Z,73.63
2023-02-08T19:14:30.713Z,73.41
2023-02-08T19:16:58.195Z,73.32
2023-02-08T19:19:25.656Z,74.92
2023-02-08T19:21:54.536Z,74.68
2023-02-08T19:24:22.070Z,74.72
2023-02-08T19:26:49.578Z,75.48
2023-02-08T19:29:19.936Z,74.24
2023-02-08T19:31:49.272Z,73.12
2023-02-08T19:34:17.823Z,73.91
2023-02-08T19:36:49.175Z,74.11
2023-02-08T19:39:20.936Z,73.68
2023-02-08T19:41:49.329Z,73.90
2023-02-08T19:44:18.982Z,73.71
2023-02-08T19:46:48.948Z,73.79
2023-02-08T19:49:17.466Z,73.51
2023-02-08T19:51:45.237Z,74.24
2023-02-08T19:54:15.378Z,74.54
2023-02-08T19:56:44.656Z,74.29
2023-02-08T19:59:15.982Z,73.54
2023-02-08T20:01:43.659Z,74.56
2023-02-08T20:04:12.243Z,74.90
2023-02-08T20:06:40.808Z,74.09
2023-02-08T20:09:09.385Z,73.54
2023-02-08T20:11:51.281Z,73.99
2023-02-08T20:14:25.617Z,73.77
2023-02-08T20:16:53.146Z,73.98
2023-02-08T20:19:20.671Z,74.63
2023-02-08T20:21:48.216Z,74.15
2023-02-08T20:24:16.274Z,75.23
2023-02-08T20:26:45.848Z,75.81
2023-02-08T20:29:14.278Z,75.51
2023-02-08T20:31:47.478Z,74.63
2023-02-08T20:34:16.952Z,76.05
2023-02-08T20:36:57.531Z,75.83
2023-02-08T20:39:32.395Z,74.79
2023-02-08T20:41:59.858Z,73.38
2023-02-08T20:44:28.336Z,74.33
2023-02-08T20:46:57.142Z,73.94
2023-02-08T20:49:26.366Z,74.85
2023-02-08T20:51:54.784Z,74.13
2023-02-08T20:54:24.283Z,73.59
2023-02-08T20:56:52.919Z,73.15
2023-02-08T20:59:20.456Z,73.83
2023-02-08T21:01:48.603Z,73.46
2023-02-08T21:04:20.097Z,75.26
2023-02-08T21:06:47.579Z,75.29
2023-02-08T21:09:17.200Z,74.76
2023-02-08T21:11:45.532Z,74.85
2023-02-08T21:14:18.626Z,74.18
2023-02-08T21:16:47.667Z,74.71
2023-02-08T21:19:17.145Z,73.52
2023-02-08T21:21:44.827Z,73.98
2023-02-08T21:24:12.293Z,74.09
2023-02-08T21:26:39.790Z,73.63
2023-02-08T21:29:07.977Z,73.34
2023-02-08T21:31:36.701Z,73.94
2023-02-08T21:34:05.727Z,73.90
2023-02-08T21:36:35.215Z,74.20
2023-02-08T21:39:02.685Z,74.29
2023-02-08T21:41:32.576Z,74.33
2023-02-08T21:44:03.078Z,73.96
2023-02-08T21:46:31.768Z,73.67
2023-02-08T21:49:17.327Z,73.42
2023-02-08T21:52:04.542Z,73.92
2023-02-08T21:54:44.193Z,73.97
2023-02-08T21:57:15.084Z,74.32
2023-02-08T21:59:42.800Z,74.41
2023-02-08T22:02:14.939Z,73.16
2023-02-08T22:04:46.453Z,73.63
2023-02-08T22:07:15.290Z,73.66
2023-02-08T22:09:42.872Z,73.90
2023-02-08T22:12:14.984Z,74.15
2023-02-08T22:14:42.705Z,73.42
2023-02-08T22:17:10.254Z,73.67
2023-02-08T22:19:38.408Z,73.76
2023-02-08T22:22:05.881Z,73.20
2023-02-08T22:24:35.120Z,72.84
2023-02-08T22:27:03.623Z,74.18
2023-02-08T22:29:31.424Z,73.36
2023-02-08T22:31:59.346Z,73.00
2023-02-08T22:34:27.487Z,72.85
2023-02-08T22:36:55.005Z,71.99
2023-02-08T22:39:22.717Z,72.74
2023-02-08T22:41:51.534Z,72.24
2023-02-08T22:44:19.022Z,73.60
2023-02-08T22:46:46.570Z,72.84
2023-02-08T22:49:14.112Z,72.97
2023-02-08T22:51:41.665Z,73.40
2023-02-08T22:54:09.141Z,72.16
2023-02-08T22:56:36.778Z,73.25
2023-02-08T22:59:05.554Z,72.16
2023-02-08T23:01:33.112Z,73.81
2023-02-08T23:04:00.807Z,73.73
2023-02-08T23:06:28.315Z,75.61
2023-02-08T23:08:56.045Z,74.71
2023-02-08T23:11:23.620Z,73.30
2023-02-08T23:13:51.163Z,73.31
2023-02-08T23:16:20.419Z,72.56
2023-02-08T23:18:48.026Z,73.65
2023-02-08T23:21:18.004Z,74.12
2023-02-08T23:23:46.413Z,72.87
2023-02-08T23:26:16.560Z,71.66
2023-02-08T23:28:44.455Z,73.12
2023-02-08T23:31:14.123Z,72.92
2023-02-08T23:33:43.550Z,73.24
2023-02-08T23:36:12.242Z,72.75
2023-02-08T23:38:40.314Z,73.49
2023-02-08T23:41:09.819Z,73.24
2023-02-08T23:43:37.851Z,73.39
2023-02-08T23:46:09.230Z,72.65
2023-02-08T23:48:39.260Z,72.84
2023-02-08T23:51:08.642Z,72.22
2023-02-08T23:53:37.327Z,72.80
2023-02-08T23:56:14.247Z,72.81
2023-02-08T23:58:42.401Z,72.96
